Aeroporto :
LOGIN :

Iscrizione | Disclaimer

   EN    FR    IT 

 










Sommario :    VFR   VFR Marginale   IFR   IFR Intensivo   IFR Molto Intensivo
Visibilità : 
Base nubi : 
>= 8 km
>= 3000ft
5 / 8 km
1000 / 3000 ft
1500m / 5 km
500 / 1000 ft
800 / 1500m
200 / 500 ft
< 800m
< 200 ft
Simboli :   Temporali  Nebbia  Neve Forte  Precipitazioni Forti  Vento > 20 kt
SIGMETs :   Varie  Temporali  Ghiacco  Turbolenza  Onda orograficha  Ceneri Vulcaniche






- Altitudine del aeroporto : 568 ft


UUMO - Ostafyevo International

ULTIMO METAR :
  • 020230Z 09008MPS 9999 -RA OVC018 10/08 Q1012 R08/290350 NOSIG RMK QFE744/0993

METARs OBSOLETI :
  • 020200Z 09008MPS 9999 BKN020 10/07 Q1012 R08/290050 NOSIG RMK QFE744/0993
  • 020130Z 08007MPS 9999 BKN020 10/07 Q1012 R08/290050 NOSIG RMK QFE745/0993
  • 020100Z 08006G11MPS 9999 BKN030 10/07 Q1012 R08/290050 NOSIG RMK QFE745/0993
  • 020030Z 08007MPS 9999 BKN030 10/07 Q1013 R08/290050 NOSIG RMK QFE745/0993
  • 020000Z 08007MPS 9999 BKN030 10/07 Q1013 R08/290050 NOSIG RMK QFE745/0993

TAF TAF UUMO
Valido dal 02 a 03 ore il 02 a 12 ore UTC


020200Z 0203/0212 07007G12MPS 9999 -RA BKN020
TEMPO 0203/0212 08010G15MPS 3100 -SHRA BKN012 BKN015CB



MetMap, La meteo Aeronautica in un colpo d'occhio ! - Copyright ORBIFLY Dicembre 2007 - Disclaimer

ORBIFLY MET'MAP TEAM :

Programmazione e sviluppo : Alexandra Zaïnal
Concezione : Baudouin d'Aumeries
Aiuto per la programmazione : Marc-Olivier Méhu
Supporto tecnico e logistico : Manuel Goepfert
Aiuto per la traduzione : Arnaldo La Scala

Contatto : metmap@orbifly.com




FONTI E CREDITI :

   NOAA